createdAt,value
2019-05-02T00:01:31.417Z,8.27
2019-05-02T00:04:00.686Z,8.29
2019-05-02T00:06:30.160Z,8.23
2019-05-02T00:09:03.831Z,8.17
2019-05-02T00:11:30.920Z,8.07
2019-05-02T00:14:00.347Z,8.10
2019-05-02T00:16:30.224Z,8.00
2019-05-02T00:18:59.487Z,7.99
2019-05-02T00:21:32.938Z,7.95
2019-05-02T00:24:03.015Z,7.81
2019-05-02T00:26:31.016Z,7.75
2019-05-02T00:29:00.267Z,7.86
2019-05-02T00:31:29.613Z,7.91
2019-05-02T00:33:58.870Z,7.92
2019-05-02T00:36:28.141Z,7.95
2019-05-02T00:38:57.743Z,7.94
2019-05-02T00:41:27.041Z,7.90
2019-05-02T00:43:56.328Z,7.86
2019-05-02T00:46:25.648Z,7.82
2019-05-02T00:48:59.638Z,7.78
2019-05-02T00:51:28.997Z,7.71
2019-05-02T00:53:58.238Z,7.59
2019-05-02T00:56:27.544Z,7.49
2019-05-02T00:58:57.100Z,7.55
2019-05-02T01:01:45.344Z,7.53
2019-05-02T01:04:33.847Z,7.47
2019-05-02T01:07:05.483Z,7.36
2019-05-02T01:09:35.821Z,7.33
2019-05-02T01:12:08.421Z,7.38
2019-05-02T01:14:36.446Z,7.11
2019-05-02T01:17:06.116Z,7.18
2019-05-02T01:19:35.669Z,7.20
2019-05-02T01:22:05.183Z,7.12
2019-05-02T01:24:39.970Z,6.98
2019-05-02T01:27:18.633Z,7.07
2019-05-02T01:30:22.652Z,7.01
2019-05-02T01:33:01.373Z,7.01
2019-05-02T01:35:41.237Z,6.92
2019-05-02T01:38:26.368Z,6.88
2019-05-02T01:40:54.991Z,6.94
2019-05-02T01:43:26.325Z,7.06
2019-05-02T01:45:56.059Z,7.17
2019-05-02T01:48:26.331Z,7.18
2019-05-02T01:50:55.606Z,7.17
2019-05-02T01:53:29.175Z,7.16
2019-05-02T01:55:57.743Z,7.15
2019-05-02T01:58:26.901Z,7.08
2019-05-02T02:01:02.381Z,7.02
2019-05-02T02:03:31.685Z,6.92
2019-05-02T02:06:02.769Z,6.92
2019-05-02T02:08:32.476Z,6.95
2019-05-02T02:11:03.231Z,6.95
2019-05-02T02:13:36.689Z,6.95
2019-05-02T02:16:04.560Z,6.88
2019-05-02T02:18:38.833Z,6.88
2019-05-02T02:21:14.770Z,6.78
2019-05-02T02:23:55.866Z,6.70
2019-05-02T02:26:25.349Z,6.59
2019-05-02T02:28:55.124Z,6.58
2019-05-02T02:31:24.429Z,6.44
2019-05-02T02:33:53.769Z,6.53
2019-05-02T02:36:31.237Z,6.78
2019-05-02T02:38:54.711Z,6.88
2019-05-02T02:41:24.048Z,6.89
2019-05-02T02:44:15.099Z,6.92
2019-05-02T02:46:45.784Z,6.91
2019-05-02T02:49:21.647Z,6.73
2019-05-02T02:51:46.217Z,6.87
2019-05-02T02:54:15.570Z,6.87
2019-05-02T02:56:44.964Z,6.86
2019-05-02T02:59:19.280Z,6.76
2019-05-02T03:01:45.358Z,6.64
2019-05-02T03:04:14.723Z,6.50
2019-05-02T03:06:45.296Z,6.55
2019-05-02T03:09:20.195Z,6.49
2019-05-02T03:12:05.170Z,6.43
2019-05-02T03:14:41.042Z,6.45
2019-05-02T03:17:07.167Z,6.41
2019-05-02T03:19:36.492Z,6.47
2019-05-02T03:22:05.803Z,6.52
2019-05-02T03:24:36.803Z,6.56
2019-05-02T03:27:06.282Z,6.58
2019-05-02T03:29:41.394Z,6.57
2019-05-02T03:32:26.203Z,6.52
2019-05-02T03:34:47.421Z,6.49
2019-05-02T03:37:13.546Z,6.55
2019-05-02T03:39:40.103Z,6.55
2019-05-02T03:42:09.374Z,6.88
2019-05-02T03:44:39.958Z,7.00
2019-05-02T03:47:09.526Z,6.91
2019-05-02T03:49:40.839Z,6.96
2019-05-02T03:52:10.248Z,7.13
2019-05-02T03:54:48.658Z,7.19
2019-05-02T03:57:11.853Z,7.36
2019-05-02T03:59:41.883Z,7.44
2019-05-02T04:02:14.237Z,7.49
2019-05-02T04:04:44.220Z,7.44
2019-05-02T04:07:14.535Z,7.53
2019-05-02T04:09:44.168Z,7.44
2019-05-02T04:12:19.058Z,7.43
2019-05-02T04:14:44.534Z,7.37
2019-05-02T04:17:13.798Z,7.51
2019-05-02T04:19:43.091Z,7.41
2019-05-02T04:22:12.590Z,7.52
2019-05-02T04:24:47.723Z,7.54
2019-05-02T04:27:13.895Z,7.66
2019-05-02T04:29:43.627Z,7.65
2019-05-02T04:32:14.427Z,7.64
2019-05-02T04:34:55.643Z,7.66
2019-05-02T04:37:21.058Z,7.68
2019-05-02T04:39:53.757Z,7.72
2019-05-02T04:42:23.235Z,7.63
2019-05-02T04:45:12.891Z,7.78
2019-05-02T04:47:23.664Z,7.79
2019-05-02T04:49:53.337Z,7.78
2019-05-02T04:52:23.656Z,7.76
2019-05-02T04:54:52.943Z,7.75
2019-05-02T04:57:29.321Z,7.77
2019-05-02T05:00:02.527Z,7.76
2019-05-02T05:02:34.254Z,7.88
2019-05-02T05:04:55.539Z,7.95
2019-05-02T05:07:25.096Z,8.11
2019-05-02T05:09:58.398Z,8.30
2019-05-02T05:12:25.432Z,8.34
2019-05-02T05:14:54.720Z,8.36
2019-05-02T05:17:24.978Z,8.35
2019-05-02T05:20:13.747Z,8.36
2019-05-02T05:22:44.182Z,8.45
2019-05-02T05:25:21.210Z,8.46
2019-05-02T05:27:52.651Z,8.67
2019-05-02T05:30:19.726Z,8.67
2019-05-02T05:32:48.980Z,8.66
2019-05-02T05:35:18.282Z,8.69
2019-05-02T05:37:51.521Z,8.87
2019-05-02T05:40:22.605Z,9.03
2019-05-02T05:42:49.852Z,9.05
2019-05-02T05:45:19.142Z,9.19
2019-05-02T05:47:52.469Z,9.28
2019-05-02T05:50:19.451Z,9.42
2019-05-02T05:52:51.693Z,9.47
2019-05-02T05:55:24.091Z,9.27
2019-05-02T05:57:59.611Z,9.33
2019-05-02T06:00:23.240Z,9.19
2019-05-02T06:02:56.737Z,9.28
2019-05-02T06:05:23.941Z,9.19
2019-05-02T06:07:53.302Z,9.19
2019-05-02T06:10:22.680Z,9.27
2019-05-02T06:12:52.002Z,9.32
2019-05-02T06:15:24.120Z,9.46
2019-05-02T06:17:53.492Z,9.48
2019-05-02T06:20:25.763Z,9.42
2019-05-02T06:22:54.932Z,9.41
2019-05-02T06:25:34.371Z,9.43
2019-05-02T06:28:00.134Z,9.44
2019-05-02T06:30:30.995Z,9.53
2019-05-02T06:32:58.937Z,9.58
2019-05-02T06:35:28.579Z,9.45
2019-05-02T06:37:57.926Z,9.72
2019-05-02T06:40:27.205Z,9.77
2019-05-02T06:42:56.505Z,9.79
2019-05-02T06:45:25.797Z,9.73
2019-05-02T06:47:55.143Z,9.69
2019-05-02T06:50:24.859Z,9.72
2019-05-02T06:52:54.261Z,9.89
2019-05-02T06:55:28.113Z,9.73
2019-05-02T06:57:56.937Z,9.68
2019-05-02T07:00:35.331Z,9.80
2019-05-02T07:02:56.979Z,9.74
2019-05-02T07:05:27.384Z,9.78
2019-05-02T07:07:57.388Z,9.84
2019-05-02T07:10:27.597Z,9.94
2019-05-02T07:13:10.205Z,9.80
2019-05-02T07:15:43.106Z,10.01
2019-05-02T07:18:14.420Z,10.03
2019-05-02T07:20:44.162Z,10.11
2019-05-02T07:23:16.368Z,10.13
2019-05-02T07:25:45.277Z,10.35
2019-05-02T07:28:14.605Z,10.22
2019-05-02T07:30:43.970Z,10.16
2019-05-02T07:33:13.305Z,10.18
2019-05-02T07:35:42.995Z,10.43
2019-05-02T07:38:15.392Z,10.39
2019-05-02T07:40:48.169Z,10.36
2019-05-02T07:43:21.169Z,10.55
2019-05-02T07:45:48.006Z,10.64
2019-05-02T07:48:18.936Z,10.63
2019-05-02T07:50:49.222Z,10.69
2019-05-02T07:53:18.537Z,10.69
2019-05-02T07:55:49.209Z,10.86
2019-05-02T07:58:18.680Z,11.11
2019-05-02T08:00:48.021Z,11.55
2019-05-02T08:03:17.573Z,11.75
2019-05-02T08:05:46.853Z,11.71
2019-05-02T08:08:16.423Z,12.03
2019-05-02T08:10:45.717Z,12.33
2019-05-02T08:13:17.480Z,12.33
2019-05-02T08:15:50.794Z,12.33
2019-05-02T08:18:17.045Z,11.83
2019-05-02T08:20:46.421Z,11.98
2019-05-02T08:23:25.254Z,12.20
2019-05-02T08:25:51.344Z,12.23
2019-05-02T08:28:25.512Z,12.37
2019-05-02T08:30:57.136Z,12.71
2019-05-02T08:33:34.597Z,12.45
2019-05-02T08:36:00.768Z,12.19
2019-05-02T08:38:30.034Z,12.25
2019-05-02T08:40:59.294Z,12.40
2019-05-02T08:43:28.526Z,12.64
2019-05-02T08:45:57.811Z,12.30
2019-05-02T08:48:27.038Z,12.48
2019-05-02T08:50:56.322Z,12.91
2019-05-02T08:53:25.547Z,13.12
2019-05-02T08:55:54.835Z,13.02
2019-05-02T08:58:24.060Z,12.98
2019-05-02T09:00:53.355Z,13.07
2019-05-02T09:03:22.591Z,12.91
2019-05-02T09:05:51.840Z,13.01
2019-05-02T09:08:21.070Z,13.21
2019-05-02T09:10:50.714Z,13.60
2019-05-02T09:13:25.934Z,13.74
2019-05-02T09:15:54.318Z,14.10
2019-05-02T09:18:30.054Z,14.00
2019-05-02T09:20:56.619Z,14.40
2019-05-02T09:23:27.579Z,14.34
2019-05-02T09:25:56.070Z,13.83
2019-05-02T09:28:25.593Z,14.00
2019-05-02T09:31:02.918Z,13.71
2019-05-02T09:33:36.779Z,14.08
2019-05-02T09:36:03.420Z,14.55
2019-05-02T09:38:32.937Z,14.04
2019-05-02T09:41:15.408Z,13.99
2019-05-02T09:43:34.850Z,14.02
2019-05-02T09:46:07.431Z,13.61
2019-05-02T09:48:35.402Z,13.53
2019-05-02T09:51:12.538Z,13.89
2019-05-02T09:53:35.933Z,13.87
2019-05-02T09:56:05.740Z,14.15
2019-05-02T09:58:35.000Z,14.46
2019-05-02T10:01:17.358Z,14.33
2019-05-02T10:03:46.951Z,14.19
2019-05-02T10:06:31.360Z,14.15
2019-05-02T10:08:59.458Z,13.63
2019-05-02T10:11:29.428Z,13.80
2019-05-02T10:13:58.712Z,13.94
2019-05-02T10:16:27.934Z,14.04
2019-05-02T10:19:00.346Z,14.29
2019-05-02T10:21:28.208Z,14.70
2019-05-02T10:23:59.530Z,14.90
2019-05-02T10:26:28.452Z,14.73
2019-05-02T10:28:57.735Z,14.80
2019-05-02T10:31:27.512Z,14.69
2019-05-02T10:33:58.011Z,14.87
2019-05-02T10:36:27.296Z,14.34
2019-05-02T10:38:59.261Z,14.66
2019-05-02T10:41:31.704Z,14.85
2019-05-02T10:43:59.585Z,14.82
2019-05-02T10:46:37.767Z,14.79
2019-05-02T10:49:15.378Z,15.17
2019-05-02T10:51:49.547Z,15.27
2019-05-02T10:54:15.616Z,15.37
2019-05-02T10:56:44.860Z,15.07
2019-05-02T10:59:14.140Z,14.89
2019-05-02T11:02:02.566Z,15.46
2019-05-02T11:04:34.445Z,15.56
2019-05-02T11:07:03.737Z,16.07
2019-05-02T11:09:33.078Z,16.00
2019-05-02T11:12:04.062Z,15.71
2019-05-02T11:14:45.249Z,15.24
2019-05-02T11:17:28.274Z,15.41
2019-05-02T11:20:01.886Z,16.14
2019-05-02T11:22:32.108Z,16.54
2019-05-02T11:25:02.027Z,16.58
2019-05-02T11:27:32.877Z,16.62
2019-05-02T11:30:07.334Z,16.72
2019-05-02T11:32:37.521Z,17.17
2019-05-02T11:35:12.230Z,16.81
2019-05-02T11:37:51.595Z,16.84
2019-05-02T11:40:36.912Z,16.76
2019-05-02T11:43:07.161Z,17.08
2019-05-02T11:45:36.516Z,17.29
2019-05-02T11:48:09.192Z,17.34
2019-05-02T11:50:52.501Z,16.99
2019-05-02T11:53:28.473Z,16.95
2019-05-02T11:55:58.253Z,17.27
2019-05-02T11:58:25.481Z,17.19
2019-05-02T12:00:54.734Z,17.37
2019-05-02T12:03:35.549Z,17.59
2019-05-02T12:06:06.565Z,18.03
2019-05-02T12:08:34.302Z,18.11
2019-05-02T12:11:03.940Z,17.74
2019-05-02T12:13:33.194Z,17.86
2019-05-02T12:16:22.874Z,17.70
2019-05-02T12:22:02.631Z,18.49
2019-05-02T12:24:32.072Z,18.20
2019-05-02T12:27:02.791Z,18.26
2019-05-02T12:29:33.490Z,18.31
2019-05-02T12:32:02.865Z,18.30
2019-05-02T12:34:32.585Z,18.29
2019-05-02T12:37:02.007Z,18.24
2019-05-02T12:39:31.726Z,17.89
2019-05-02T12:42:03.060Z,18.33
2019-05-02T12:44:32.222Z,18.28
2019-05-02T12:47:02.633Z,18.30
2019-05-02T12:49:32.517Z,18.48
2019-05-02T12:52:01.920Z,18.55
2019-05-02T12:54:32.513Z,18.48
2019-05-02T12:57:02.199Z,17.71
2019-05-02T12:59:32.177Z,17.81
2019-05-02T13:02:03.543Z,18.06
2019-05-02T13:04:32.778Z,17.88
2019-05-02T13:07:02.253Z,18.05
2019-05-02T13:09:32.598Z,17.79
2019-05-02T13:12:10.105Z,17.59
2019-05-02T13:14:39.495Z,17.49
2019-05-02T13:17:08.766Z,17.62
2019-05-02T13:19:41.600Z,17.74
2019-05-02T13:22:28.007Z,17.81
2019-05-02T13:25:10.452Z,17.75
2019-05-02T13:27:46.086Z,17.85
2019-05-02T13:30:17.532Z,17.48
2019-05-02T13:32:53.773Z,18.21
2019-05-02T13:35:42.703Z,18.31
2019-05-02T13:38:16.310Z,18.22
2019-05-02T13:40:45.869Z,18.78
2019-05-02T13:43:15.189Z,18.52
2019-05-02T13:46:12.602Z,18.29
2019-05-02T13:48:42.916Z,18.75
2019-05-02T13:51:12.292Z,19.51
2019-05-02T13:53:57.143Z,19.88
2019-05-02T13:56:45.389Z,20.08
2019-05-02T13:59:15.191Z,20.60
2019-05-02T14:01:45.984Z,19.95
2019-05-02T14:04:15.264Z,19.94
2019-05-02T14:06:44.485Z,19.81
2019-05-02T14:09:36.185Z,19.31
2019-05-02T14:12:23.330Z,18.99
2019-05-02T14:14:52.615Z,18.80
2019-05-02T14:17:22.930Z,18.16
2019-05-02T14:20:01.149Z,18.16
2019-05-02T14:22:23.283Z,18.20
2019-05-02T14:24:52.561Z,18.39
2019-05-02T14:27:23.181Z,18.13
2019-05-02T14:29:55.707Z,18.28
2019-05-02T14:32:26.603Z,18.70
2019-05-02T14:35:12.536Z,18.92
2019-05-02T14:37:42.175Z,18.97
2019-05-02T14:40:25.149Z,18.58
2019-05-02T14:42:57.873Z,18.68
2019-05-02T14:45:30.345Z,19.08
2019-05-02T14:48:04.060Z,19.33
2019-05-02T14:50:28.592Z,19.76
2019-05-02T14:53:02.628Z,20.40
2019-05-02T14:55:38.498Z,20.05
2019-05-02T14:58:08.798Z,19.03
2019-05-02T15:00:45.791Z,19.34
2019-05-02T15:03:12.966Z,18.85
2019-05-02T15:06:04.075Z,18.42
2019-05-02T15:08:45.257Z,17.85
2019-05-02T15:11:14.902Z,17.58
2019-05-02T15:13:44.235Z,17.34
2019-05-02T15:16:40.343Z,17.05
2019-05-02T15:19:03.513Z,16.93
2019-05-02T15:21:42.298Z,16.58
2019-05-02T15:24:33.285Z,16.30
2019-05-02T15:27:03.988Z,16.05
2019-05-02T15:29:32.479Z,15.67
2019-05-02T15:32:15.279Z,14.89
2019-05-02T15:35:09.171Z,13.97
2019-05-02T15:37:38.784Z,13.06
2019-05-02T15:42:42.256Z,12.72
2019-05-02T15:45:12.521Z,12.64
2019-05-02T15:47:45.166Z,12.48
2019-05-02T15:50:16.349Z,12.44
2019-05-02T15:53:32.426Z,12.43
2019-05-02T15:56:02.199Z,12.36
2019-05-02T15:58:32.484Z,12.32
2019-05-02T16:01:18.274Z,12.37
2019-05-02T16:03:49.508Z,12.33
2019-05-02T16:06:36.323Z,12.28
2019-05-02T16:09:08.518Z,12.25
2019-05-02T16:11:37.869Z,12.28
2019-05-02T16:14:07.639Z,12.18
2019-05-02T16:16:41.866Z,12.16
2019-05-02T16:19:14.886Z,12.16
2019-05-02T16:21:49.697Z,12.13
2019-05-02T16:24:23.264Z,12.07
2019-05-02T16:26:56.626Z,12.02
2019-05-02T16:29:28.844Z,11.90
2019-05-02T16:32:03.611Z,11.78
2019-05-02T16:34:35.428Z,11.68
2019-05-02T16:37:13.279Z,11.71
2019-05-02T16:39:49.633Z,11.66
2019-05-02T16:42:22.733Z,11.53
2019-05-02T16:44:54.636Z,11.49
2019-05-02T16:47:34.053Z,11.43
2019-05-02T16:50:03.328Z,11.48
2019-05-02T16:52:32.812Z,11.45
2019-05-02T16:55:02.876Z,11.42
2019-05-02T16:57:35.098Z,11.45
2019-05-02T17:00:06.173Z,11.48
2019-05-02T17:02:37.839Z,11.54
2019-05-02T17:05:09.346Z,11.58
2019-05-02T17:07:56.707Z,11.52
2019-05-02T17:10:29.699Z,11.56
2019-05-02T17:13:02.764Z,11.56
2019-05-02T17:15:35.258Z,11.56
2019-05-02T17:18:12.716Z,11.59
2019-05-02T17:20:37.331Z,11.58
2019-05-02T17:23:07.782Z,11.57
2019-05-02T17:25:38.067Z,11.61
2019-05-02T17:28:10.652Z,11.52
2019-05-02T17:30:40.502Z,11.36
2019-05-02T17:33:12.918Z,11.52
2019-05-02T17:35:48.794Z,11.53
2019-05-02T17:38:12.197Z,11.49
2019-05-02T17:40:42.149Z,11.52
2019-05-02T17:43:12.032Z,11.57
2019-05-02T17:45:41.357Z,11.60
2019-05-02T17:48:16.178Z,11.62
2019-05-02T17:50:56.032Z,11.60
2019-05-02T17:53:22.505Z,11.54
2019-05-02T17:55:52.611Z,11.58
2019-05-02T17:58:21.930Z,11.48
2019-05-02T18:00:56.949Z,11.32
2019-05-02T18:03:31.131Z,11.27
2019-05-02T18:05:57.261Z,11.17
2019-05-02T18:08:27.171Z,11.21
2019-05-02T18:11:03.745Z,11.21
2019-05-02T18:13:33.840Z,11.25
2019-05-02T18:16:07.751Z,11.21
2019-05-02T18:18:37.570Z,11.15
2019-05-02T18:21:06.421Z,11.14
2019-05-02T18:23:36.035Z,11.12
2019-05-02T18:26:08.409Z,11.14
2019-05-02T18:28:47.027Z,11.11
2019-05-02T18:31:12.202Z,11.10
2019-05-02T18:33:42.547Z,11.12
2019-05-02T18:36:12.077Z,11.15
2019-05-02T18:38:41.898Z,11.18
2019-05-02T18:41:12.095Z,11.21
2019-05-02T18:43:45.207Z,11.15
2019-05-02T18:46:12.954Z,11.18
2019-05-02T18:48:46.794Z,11.23
2019-05-02T18:51:17.250Z,11.22
2019-05-02T18:53:44.395Z,11.22
2019-05-02T18:56:13.669Z,11.25
2019-05-02T18:58:45.145Z,11.31
2019-05-02T19:01:17.823Z,11.31
2019-05-02T19:03:52.506Z,11.34
2019-05-02T19:06:19.016Z,11.37
2019-05-02T19:08:52.284Z,11.36
2019-05-02T19:11:22.133Z,11.35
2019-05-02T19:13:52.669Z,11.46
2019-05-02T19:16:24.983Z,11.50
2019-05-02T19:18:57.024Z,11.50
2019-05-02T19:21:26.460Z,11.41
2019-05-02T19:23:56.551Z,11.30
2019-05-02T19:26:25.900Z,11.24
2019-05-02T19:29:02.830Z,11.19
2019-05-02T19:31:44.959Z,11.21
2019-05-02T19:34:16.811Z,11.21
2019-05-02T19:36:43.961Z,11.16
2019-05-02T19:39:13.409Z,11.18
2019-05-02T19:41:45.339Z,11.19
2019-05-02T19:44:15.392Z,11.23
2019-05-02T19:46:45.182Z,11.19
2019-05-02T19:49:16.304Z,11.20
2019-05-02T19:51:50.468Z,11.23
2019-05-02T19:54:17.507Z,11.24
2019-05-02T19:56:47.637Z,11.22
2019-05-02T19:59:24.555Z,11.17
2019-05-02T20:01:48.393Z,11.17
2019-05-02T20:04:17.644Z,11.12
2019-05-02T20:06:46.931Z,11.14
2019-05-02T20:09:16.491Z,11.13
2019-05-02T20:11:45.836Z,11.13
2019-05-02T20:14:15.079Z,11.11
2019-05-02T20:16:50.106Z,11.19
2019-05-02T20:19:25.311Z,11.21
2019-05-02T20:22:06.763Z,11.21
2019-05-02T20:24:58.315Z,11.22
2019-05-02T20:27:27.951Z,11.17
2019-05-02T20:29:57.084Z,11.16
2019-05-02T20:32:26.530Z,11.11
2019-05-02T20:35:04.916Z,11.13
2019-05-02T20:37:34.366Z,11.17
2019-05-02T20:40:03.790Z,11.15
2019-05-02T20:42:33.130Z,10.76
2019-05-02T20:45:12.772Z,11.20
2019-05-02T20:55:41.786Z,11.28
2019-05-02T20:58:12.657Z,11.22
2019-05-02T21:00:42.699Z,11.15
2019-05-02T21:03:12.085Z,11.08
2019-05-02T21:06:06.599Z,10.93
2019-05-02T21:08:52.655Z,10.50
2019-05-02T21:11:22.431Z,10.24
2019-05-02T21:13:52.477Z,10.22
2019-05-02T21:16:22.179Z,10.21
2019-05-02T21:22:27.215Z,10.24
2019-05-02T21:24:56.490Z,10.25
2019-05-02T21:27:25.770Z,10.29
2019-05-02T21:29:55.030Z,10.37
2019-05-02T21:32:24.301Z,10.43
2019-05-02T21:34:53.859Z,10.38
2019-05-02T21:37:23.182Z,10.35
2019-05-02T21:39:52.846Z,10.41
2019-05-02T21:42:22.698Z,10.47
2019-05-02T21:44:52.045Z,10.49
2019-05-02T21:47:22.518Z,10.42
2019-05-02T21:50:09.272Z,10.37
2019-05-02T21:53:03.915Z,10.27
2019-05-02T21:55:58.025Z,10.16
2019-05-02T21:58:29.473Z,10.08
2019-05-02T22:01:07.056Z,9.98
2019-05-02T22:03:36.401Z,9.86
2019-05-02T22:06:06.274Z,9.73
2019-05-02T22:08:35.943Z,9.60
2019-05-02T22:11:05.866Z,9.53
2019-05-02T22:13:35.416Z,9.46
2019-05-02T22:16:04.690Z,9.35
2019-05-02T22:18:33.997Z,9.30
2019-05-02T22:21:03.239Z,9.25
2019-05-02T22:23:33.991Z,9.18
2019-05-02T22:26:03.706Z,9.16
2019-05-02T22:28:32.973Z,9.10
2019-05-02T22:31:03.258Z,9.06
2019-05-02T22:33:32.932Z,9.02
2019-05-02T22:36:02.205Z,8.96
2019-05-02T22:38:50.506Z,8.87
2019-05-02T22:41:22.026Z,8.78
2019-05-02T22:43:50.694Z,8.69
2019-05-02T22:46:43.298Z,8.63
2019-05-02T22:49:14.742Z,8.54
2019-05-02T22:51:44.824Z,8.47
2019-05-02T22:54:26.705Z,8.43
2019-05-02T22:56:46.055Z,8.37
2019-05-02T22:59:15.313Z,8.34
2019-05-02T23:01:44.542Z,8.27
2019-05-02T23:04:13.740Z,8.24
2019-05-02T23:06:44.232Z,8.22
2019-05-02T23:09:13.717Z,8.16
2019-05-02T23:11:42.986Z,8.16
2019-05-02T23:14:12.213Z,8.13
2019-05-02T23:16:42.770Z,8.08
2019-05-02T23:19:12.542Z,8.03
2019-05-02T23:21:42.468Z,8.00
2019-05-02T23:24:23.734Z,7.99
2019-05-02T23:27:02.300Z,7.98
2019-05-02T23:29:31.846Z,7.96
2019-05-02T23:32:02.368Z,7.87
2019-05-02T23:34:32.439Z,7.85
2019-05-02T23:37:02.626Z,7.85
2019-05-02T23:39:32.359Z,7.83
2019-05-02T23:42:01.979Z,7.79
2019-05-02T23:44:31.341Z,7.82
2019-05-02T23:47:02.234Z,7.84
2019-05-02T23:49:32.462Z,7.88
2019-05-02T23:52:02.261Z,7.90
2019-05-02T23:54:32.418Z,7.87
2019-05-02T23:57:01.827Z,7.89
2019-05-02T23:59:31.770Z,7.94
